createdAt,value
2018-07-30T00:00:55.659Z,951.78
2018-07-30T00:01:55.649Z,951.82
2018-07-30T00:02:55.633Z,951.82
2018-07-30T00:03:55.651Z,951.84
2018-07-30T00:04:55.612Z,951.79
2018-07-30T00:05:55.603Z,951.80
2018-07-30T00:06:55.607Z,951.79
2018-07-30T00:07:55.576Z,951.72
2018-07-30T00:08:55.586Z,951.78
2018-07-30T00:09:55.565Z,951.71
2018-07-30T00:10:55.547Z,951.77
2018-07-30T00:11:55.537Z,951.78
2018-07-30T00:12:55.522Z,951.73
2018-07-30T00:13:55.512Z,951.75
2018-07-30T00:14:55.539Z,951.75
2018-07-30T00:15:55.506Z,951.74
2018-07-30T00:16:55.483Z,951.82
2018-07-30T00:17:55.472Z,951.72
2018-07-30T00:18:55.455Z,951.77
2018-07-30T00:19:55.441Z,951.73
2018-07-30T00:20:55.446Z,951.72
2018-07-30T00:21:55.435Z,951.78
2018-07-30T00:22:55.408Z,951.74
2018-07-30T00:23:55.400Z,951.76
2018-07-30T00:24:55.381Z,951.77
2018-07-30T00:25:55.390Z,951.77
2018-07-30T00:26:55.373Z,951.79
2018-07-30T00:27:55.369Z,951.79
2018-07-30T00:28:55.342Z,951.80
2018-07-30T00:29:55.328Z,951.79
2018-07-30T00:30:55.352Z,951.82
2018-07-30T00:31:55.309Z,951.81
2018-07-30T00:32:55.298Z,951.79
2018-07-30T00:33:55.307Z,951.81
2018-07-30T00:34:55.286Z,951.77
2018-07-30T00:35:55.261Z,951.85
2018-07-30T00:36:55.278Z,951.89
2018-07-30T00:37:55.244Z,951.85
2018-07-30T00:38:55.227Z,951.85
2018-07-30T00:39:55.232Z,951.86
2018-07-30T00:40:55.208Z,951.83
2018-07-30T00:41:55.198Z,951.83
2018-07-30T00:42:55.194Z,951.85
2018-07-30T00:43:55.173Z,951.85
2018-07-30T00:44:55.166Z,951.80
2018-07-30T00:45:55.162Z,951.85
2018-07-30T00:46:55.153Z,951.80
2018-07-30T00:47:55.138Z,951.82
2018-07-30T00:48:55.116Z,951.88
2018-07-30T00:49:55.106Z,951.85
2018-07-30T00:50:55.099Z,951.83
2018-07-30T00:51:55.095Z,951.86
2018-07-30T00:52:55.089Z,951.87
2018-07-30T00:53:55.059Z,951.91
2018-07-30T00:54:55.060Z,951.86
2018-07-30T00:55:55.040Z,951.87
2018-07-30T00:56:55.113Z,951.89
2018-07-30T00:57:55.027Z,951.85
2018-07-30T00:58:55.044Z,951.90
2018-07-30T00:59:54.992Z,951.90
2018-07-30T01:00:54.981Z,951.89
2018-07-30T01:01:54.966Z,951.84
2018-07-30T01:02:54.962Z,951.86
2018-07-30T01:03:54.966Z,951.84
2018-07-30T01:04:54.943Z,951.81
2018-07-30T01:05:54.922Z,951.86
2018-07-30T01:06:54.916Z,951.87
2018-07-30T01:07:54.895Z,951.87
2018-07-30T01:08:54.896Z,951.84
2018-07-30T01:09:54.902Z,951.87
2018-07-30T01:10:54.867Z,951.82
2018-07-30T01:11:54.854Z,951.89
2018-07-30T01:12:54.843Z,951.86
2018-07-30T01:13:54.835Z,951.84
2018-07-30T01:14:54.846Z,951.90
2018-07-30T01:15:54.830Z,951.88
2018-07-30T01:16:54.803Z,951.91
2018-07-30T01:17:54.783Z,951.91
2018-07-30T01:18:54.777Z,951.92
2018-07-30T01:19:54.765Z,951.87
2018-07-30T01:20:54.763Z,951.88
2018-07-30T01:21:54.755Z,951.89
2018-07-30T01:22:54.738Z,951.86
2018-07-30T01:23:54.720Z,951.91
2018-07-30T01:24:54.709Z,951.84
2018-07-30T01:25:54.722Z,951.87
2018-07-30T01:26:54.691Z,951.91
2018-07-30T01:27:54.691Z,951.87
2018-07-30T01:28:54.659Z,951.88
2018-07-30T01:29:54.657Z,951.88
2018-07-30T01:30:54.646Z,951.86
2018-07-30T01:31:54.653Z,951.85
2018-07-30T01:32:54.623Z,951.89
2018-07-30T01:33:54.620Z,951.91
2018-07-30T01:34:54.599Z,951.90
2018-07-30T01:35:54.586Z,951.88
2018-07-30T01:36:54.576Z,951.90
2018-07-30T01:37:54.576Z,951.89
2018-07-30T01:38:54.551Z,951.88
2018-07-30T01:39:54.556Z,951.88
2018-07-30T01:40:54.531Z,951.81
2018-07-30T01:41:54.541Z,951.86
2018-07-30T01:42:54.514Z,951.83
2018-07-30T01:43:54.499Z,951.78
2018-07-30T01:44:54.484Z,951.82
2018-07-30T01:45:54.494Z,951.87
2018-07-30T01:46:54.461Z,951.87
2018-07-30T01:47:54.468Z,951.91
2018-07-30T01:48:54.445Z,951.86
2018-07-30T01:49:54.426Z,951.84
2018-07-30T01:50:54.420Z,951.82
2018-07-30T01:51:54.421Z,951.88
2018-07-30T01:52:54.420Z,951.84
2018-07-30T01:53:54.389Z,951.87
2018-07-30T01:54:54.374Z,951.82
2018-07-30T01:55:54.357Z,951.83
2018-07-30T01:56:54.356Z,951.83
2018-07-30T01:57:54.357Z,951.85
2018-07-30T01:58:54.357Z,951.84
2018-07-30T01:59:54.606Z,951.79
2018-07-30T02:00:54.341Z,951.82
2018-07-30T02:01:54.291Z,951.85
2018-07-30T02:02:54.282Z,951.84
2018-07-30T02:03:54.292Z,951.81
2018-07-30T02:04:54.270Z,951.83
2018-07-30T02:05:54.247Z,951.90
2018-07-30T02:06:54.238Z,951.91
2018-07-30T02:07:54.237Z,951.92
2018-07-30T02:08:54.224Z,951.93
2018-07-30T02:09:54.228Z,951.94
2018-07-30T02:10:54.197Z,951.97
2018-07-30T02:11:54.177Z,951.96
2018-07-30T02:12:54.173Z,951.95
2018-07-30T02:13:54.158Z,951.93
2018-07-30T02:14:54.177Z,951.93
2018-07-30T02:15:54.149Z,951.97
2018-07-30T02:16:54.120Z,951.99
2018-07-30T02:17:54.111Z,951.98
2018-07-30T02:18:54.100Z,951.99
2018-07-30T02:19:54.095Z,951.98
2018-07-30T02:20:54.096Z,952.04
2018-07-30T02:21:54.076Z,951.99
2018-07-30T02:22:54.059Z,952.01
2018-07-30T02:23:54.048Z,951.99
2018-07-30T02:24:54.035Z,951.97
2018-07-30T02:25:54.024Z,952.00
2018-07-30T02:26:54.025Z,951.98
2018-07-30T02:27:54.016Z,951.96
2018-07-30T02:28:53.986Z,952.00
2018-07-30T02:29:53.978Z,952.00
2018-07-30T02:30:53.965Z,951.97
2018-07-30T02:31:53.963Z,951.99
2018-07-30T02:32:53.946Z,951.99
2018-07-30T02:33:53.945Z,952.09
2018-07-30T02:34:53.920Z,952.07
2018-07-30T02:35:53.920Z,952.05
2018-07-30T02:36:53.896Z,952.06
2018-07-30T02:37:53.900Z,952.05
2018-07-30T02:38:53.881Z,952.08
2018-07-30T02:39:53.878Z,952.05
2018-07-30T02:40:53.856Z,952.01
2018-07-30T02:41:53.843Z,952.05
2018-07-30T02:42:53.849Z,952.07
2018-07-30T02:43:53.821Z,952.03
2018-07-30T02:44:53.808Z,952.06
2018-07-30T02:45:53.818Z,952.02
2018-07-30T02:46:53.791Z,952.06
2018-07-30T02:47:53.802Z,952.08
2018-07-30T02:48:53.765Z,952.08
2018-07-30T02:49:53.751Z,952.06
2018-07-30T02:50:53.741Z,952.06
2018-07-30T02:51:53.762Z,952.09
2018-07-30T02:52:53.715Z,952.10
2018-07-30T02:53:53.722Z,952.12
2018-07-30T02:54:53.703Z,952.14
2018-07-30T02:55:53.685Z,952.11
2018-07-30T02:56:53.676Z,952.06
2018-07-30T02:57:53.677Z,952.08
2018-07-30T02:58:53.668Z,952.06
2018-07-30T02:59:53.645Z,952.08
2018-07-30T03:00:53.630Z,952.08
2018-07-30T03:01:53.620Z,952.11
2018-07-30T03:02:53.608Z,952.09
2018-07-30T03:03:53.610Z,952.10
2018-07-30T03:04:53.594Z,952.11
2018-07-30T03:05:53.569Z,952.07
2018-07-30T03:06:53.564Z,952.11
2018-07-30T03:07:53.555Z,952.10
2018-07-30T03:08:53.535Z,952.09
2018-07-30T03:09:53.564Z,952.06
2018-07-30T03:10:53.515Z,952.10
2018-07-30T03:11:53.503Z,952.13
2018-07-30T03:12:53.497Z,952.13
2018-07-30T03:13:53.486Z,952.12
2018-07-30T03:14:53.467Z,952.12
2018-07-30T03:15:53.483Z,952.13
2018-07-30T03:16:53.442Z,952.13
2018-07-30T03:17:53.439Z,952.14
2018-07-30T03:18:53.427Z,952.18
2018-07-30T03:19:53.412Z,952.15
2018-07-30T03:20:53.425Z,952.13
2018-07-30T03:21:53.398Z,952.19
2018-07-30T03:22:53.381Z,952.14
2018-07-30T03:23:53.371Z,952.12
2018-07-30T03:24:53.358Z,952.13
2018-07-30T03:25:53.350Z,952.15
2018-07-30T03:26:53.347Z,952.15
2018-07-30T03:27:53.344Z,952.13
2018-07-30T03:28:53.386Z,952.12
2018-07-30T03:29:53.304Z,952.09
2018-07-30T03:30:53.291Z,952.08
2018-07-30T03:31:53.298Z,952.15
2018-07-30T03:32:53.270Z,952.10
2018-07-30T03:33:53.273Z,952.13
2018-07-30T03:34:53.245Z,952.07
2018-07-30T03:35:53.235Z,952.05
2018-07-30T03:36:53.221Z,952.05
2018-07-30T03:37:53.231Z,952.02
2018-07-30T03:38:53.199Z,952.01
2018-07-30T03:39:53.199Z,952.00
2018-07-30T03:40:53.172Z,952.04
2018-07-30T03:41:53.167Z,952.03
2018-07-30T03:42:53.160Z,952.02
2018-07-30T03:43:53.183Z,952.03
2018-07-30T03:44:53.133Z,952.01
2018-07-30T03:45:53.135Z,952.05
2018-07-30T03:46:53.106Z,952.06
2018-07-30T03:47:53.116Z,952.08
2018-07-30T03:48:53.089Z,952.10
2018-07-30T03:49:53.183Z,952.13
2018-07-30T03:50:53.063Z,952.16
2018-07-30T03:51:53.062Z,952.13
2018-07-30T03:52:53.042Z,952.16
2018-07-30T03:53:53.028Z,952.14
2018-07-30T03:54:53.028Z,952.12
2018-07-30T03:55:53.007Z,952.15
2018-07-30T03:56:52.993Z,952.14
2018-07-30T03:57:53.007Z,952.13
2018-07-30T03:58:52.970Z,952.14
2018-07-30T03:59:53.023Z,952.12
2018-07-30T04:00:52.953Z,952.16
2018-07-30T04:01:52.938Z,952.18
2018-07-30T04:02:52.923Z,952.15
2018-07-30T04:03:52.932Z,952.17
2018-07-30T04:04:52.900Z,952.14
2018-07-30T04:05:52.958Z,952.15
2018-07-30T04:06:52.886Z,952.13
2018-07-30T04:07:52.872Z,952.16
2018-07-30T04:08:52.860Z,952.12
2018-07-30T04:09:52.861Z,952.18
2018-07-30T04:10:52.836Z,952.15
2018-07-30T04:11:52.834Z,952.09
2018-07-30T04:12:52.810Z,952.12
2018-07-30T04:13:52.806Z,952.12
2018-07-30T04:14:52.793Z,952.11
2018-07-30T04:15:52.806Z,952.08
2018-07-30T04:16:52.782Z,952.14
2018-07-30T04:17:52.757Z,952.12
2018-07-30T04:18:52.748Z,952.13
2018-07-30T04:19:52.737Z,952.16
2018-07-30T04:20:52.726Z,952.16
2018-07-30T04:21:52.750Z,952.17
2018-07-30T04:22:52.701Z,952.12
2018-07-30T04:23:52.686Z,952.13
2018-07-30T04:24:52.681Z,952.13
2018-07-30T04:25:52.664Z,952.14
2018-07-30T04:26:52.666Z,952.17
2018-07-30T04:27:52.682Z,952.12
2018-07-30T04:28:52.631Z,952.11
2018-07-30T04:29:52.625Z,952.13
2018-07-30T04:30:52.639Z,952.11
2018-07-30T04:31:52.607Z,952.09
2018-07-30T04:32:52.612Z,952.10
2018-07-30T04:33:52.594Z,952.12
2018-07-30T04:34:52.563Z,952.13
2018-07-30T04:35:52.554Z,952.12
2018-07-30T04:36:52.544Z,952.14
2018-07-30T04:37:52.530Z,952.14
2018-07-30T04:38:52.650Z,952.13
2018-07-30T04:39:52.514Z,952.15
2018-07-30T04:40:52.492Z,952.15
2018-07-30T04:41:52.487Z,952.15
2018-07-30T04:42:52.475Z,952.15
2018-07-30T04:43:52.565Z,952.14
2018-07-30T04:44:52.465Z,952.12
2018-07-30T04:45:52.442Z,952.14
2018-07-30T04:46:52.431Z,952.14
2018-07-30T04:47:52.430Z,952.12
2018-07-30T04:48:52.423Z,952.13
2018-07-30T04:49:52.398Z,952.14
2018-07-30T04:50:52.396Z,952.19
2018-07-30T04:51:52.373Z,952.14
2018-07-30T04:52:52.364Z,952.16
2018-07-30T04:53:52.373Z,952.20
2018-07-30T04:54:52.338Z,952.14
2018-07-30T04:55:52.331Z,952.16
2018-07-30T04:56:52.350Z,952.19
2018-07-30T04:57:52.308Z,952.16
2018-07-30T04:58:52.299Z,952.19
2018-07-30T04:59:52.318Z,952.18
2018-07-30T05:00:52.281Z,952.21
2018-07-30T05:01:52.260Z,952.23
2018-07-30T05:02:52.264Z,952.22
2018-07-30T05:03:52.306Z,952.20
2018-07-30T05:04:52.231Z,952.18
2018-07-30T05:05:52.230Z,952.20
2018-07-30T05:06:52.209Z,952.22
2018-07-30T05:07:52.193Z,952.17
2018-07-30T05:08:52.192Z,952.22
2018-07-30T05:09:52.169Z,952.21
2018-07-30T05:10:52.188Z,952.25
2018-07-30T05:11:52.152Z,952.21
2018-07-30T05:12:52.134Z,952.23
2018-07-30T05:13:52.128Z,952.23
2018-07-30T05:14:52.130Z,952.22
2018-07-30T05:15:52.104Z,952.20
2018-07-30T05:16:52.108Z,952.20
2018-07-30T05:17:52.080Z,952.22
2018-07-30T05:18:52.074Z,952.22
2018-07-30T05:19:52.059Z,952.25
2018-07-30T05:20:52.065Z,952.30
2018-07-30T05:21:52.057Z,952.29
2018-07-30T05:22:52.028Z,952.28
2018-07-30T05:23:52.013Z,952.31
2018-07-30T05:24:52.002Z,952.29
2018-07-30T05:25:51.994Z,952.31
2018-07-30T05:26:51.991Z,952.33
2018-07-30T05:27:52.004Z,952.40
2018-07-30T05:28:51.954Z,952.37
2018-07-30T05:29:51.952Z,952.37
2018-07-30T05:30:51.936Z,952.36
2018-07-30T05:31:51.926Z,952.36
2018-07-30T05:32:51.927Z,952.39
2018-07-30T05:33:51.916Z,952.40
2018-07-30T05:34:51.890Z,952.37
2018-07-30T05:35:51.876Z,952.38
2018-07-30T05:36:51.869Z,952.38
2018-07-30T05:37:51.858Z,952.34
2018-07-30T05:38:51.882Z,952.37
2018-07-30T05:39:51.835Z,952.39
2018-07-30T05:40:51.827Z,952.40
2018-07-30T05:41:51.811Z,952.41
2018-07-30T05:42:51.875Z,952.45
2018-07-30T05:43:51.799Z,952.45
2018-07-30T05:44:51.788Z,952.50
2018-07-30T05:45:51.767Z,952.47
2018-07-30T05:46:51.757Z,952.48
2018-07-30T05:47:51.755Z,952.48
2018-07-30T05:48:51.753Z,952.43
2018-07-30T05:49:51.716Z,952.50
2018-07-30T05:50:51.725Z,952.48
2018-07-30T05:51:51.698Z,952.47
2018-07-30T05:52:51.686Z,952.46
2018-07-30T05:53:51.680Z,952.47
2018-07-30T05:54:51.686Z,952.47
2018-07-30T05:55:51.663Z,952.45
2018-07-30T05:56:51.642Z,952.47
2018-07-30T05:57:51.638Z,952.48
2018-07-30T05:58:51.614Z,952.49
2018-07-30T05:59:51.686Z,952.43
2018-07-30T06:00:51.602Z,952.42
2018-07-30T06:01:51.600Z,952.46
2018-07-30T06:02:51.572Z,952.49
2018-07-30T06:03:51.564Z,952.45
2018-07-30T06:04:51.551Z,952.50
2018-07-30T06:05:51.552Z,952.45
2018-07-30T06:06:51.528Z,952.52
2018-07-30T06:07:51.542Z,952.54
2018-07-30T06:08:51.506Z,952.50
2018-07-30T06:09:51.502Z,952.51
2018-07-30T06:10:51.512Z,952.53
2018-07-30T06:11:51.472Z,952.55
2018-07-30T06:12:51.463Z,952.54
2018-07-30T06:13:51.458Z,952.54
2018-07-30T06:14:51.437Z,952.57
2018-07-30T06:15:51.429Z,952.58
2018-07-30T06:16:51.444Z,952.59
2018-07-30T06:17:51.409Z,952.58
2018-07-30T06:18:51.396Z,952.61
2018-07-30T06:19:51.395Z,952.61
2018-07-30T06:20:51.378Z,952.63
2018-07-30T06:21:51.359Z,952.63
2018-07-30T06:22:51.361Z,952.64
2018-07-30T06:23:51.334Z,952.63
2018-07-30T06:24:51.323Z,952.65
2018-07-30T06:25:51.332Z,952.65
2018-07-30T06:26:51.303Z,952.67
2018-07-30T06:27:51.324Z,952.66
2018-07-30T06:28:51.280Z,952.71
2018-07-30T06:29:51.271Z,952.63
2018-07-30T06:30:51.253Z,952.66
2018-07-30T06:31:51.344Z,952.69
2018-07-30T06:32:51.233Z,952.66
2018-07-30T06:33:51.233Z,952.67
2018-07-30T06:34:51.209Z,952.71
2018-07-30T06:35:51.204Z,952.70
2018-07-30T06:36:51.190Z,952.72
2018-07-30T06:37:51.190Z,952.74
2018-07-30T06:38:51.201Z,952.73
2018-07-30T06:39:51.158Z,952.76
2018-07-30T06:40:51.147Z,952.74
2018-07-30T06:41:51.133Z,952.74
2018-07-30T06:42:51.151Z,952.74
2018-07-30T06:43:51.117Z,952.71
2018-07-30T06:44:51.113Z,952.75
2018-07-30T06:45:51.089Z,952.75
2018-07-30T06:46:51.076Z,952.78
2018-07-30T06:47:51.098Z,952.80
2018-07-30T06:48:51.061Z,952.83
2018-07-30T06:49:51.092Z,952.84
2018-07-30T06:50:57.604Z,952.84
2018-07-30T06:51:51.022Z,952.94
2018-07-30T06:52:51.002Z,952.91
2018-07-30T06:53:50.997Z,952.98
2018-07-30T06:54:50.987Z,952.92
2018-07-30T06:55:51.000Z,952.92
2018-07-30T06:56:50.965Z,952.89
2018-07-30T06:57:50.954Z,952.93
2018-07-30T06:58:50.941Z,952.95
2018-07-30T06:59:50.937Z,952.98
2018-07-30T07:00:50.937Z,952.96
2018-07-30T07:01:50.924Z,952.95
2018-07-30T07:02:50.897Z,952.91
2018-07-30T07:03:50.884Z,952.93
2018-07-30T07:04:50.876Z,952.92
2018-07-30T07:05:50.880Z,952.95
2018-07-30T07:06:50.855Z,952.90
2018-07-30T07:07:50.858Z,952.88
2018-07-30T07:08:50.825Z,952.90
2018-07-30T07:09:50.821Z,952.92
2018-07-30T07:10:50.848Z,952.89
2018-07-30T07:11:50.797Z,952.92
2018-07-30T07:12:50.791Z,952.89
2018-07-30T07:13:50.785Z,952.93
2018-07-30T07:14:50.761Z,952.90
2018-07-30T07:15:50.798Z,952.88
2018-07-30T07:16:50.796Z,952.88
2018-07-30T07:17:50.733Z,952.93
2018-07-30T07:18:50.721Z,952.89
2018-07-30T07:19:50.722Z,952.89
2018-07-30T07:20:50.701Z,952.87
2018-07-30T07:21:50.723Z,952.91
2018-07-30T07:22:50.680Z,952.91
2018-07-30T07:23:50.669Z,952.91
2018-07-30T07:24:50.673Z,952.90
2018-07-30T07:25:50.644Z,952.83
2018-07-30T07:26:50.705Z,952.92
2018-07-30T07:27:50.653Z,952.92
2018-07-30T07:28:50.613Z,952.87
2018-07-30T07:29:50.601Z,952.89
2018-07-30T07:30:50.598Z,952.93
2018-07-30T07:31:50.574Z,952.92
2018-07-30T07:32:50.586Z,952.97
2018-07-30T07:33:50.560Z,952.92
2018-07-30T07:34:50.584Z,952.97
2018-07-30T07:35:50.531Z,952.95
2018-07-30T07:36:50.541Z,952.94
2018-07-30T07:37:50.541Z,952.95
2018-07-30T07:38:50.503Z,952.97
2018-07-30T07:39:50.492Z,952.97
2018-07-30T07:40:50.477Z,952.98
2018-07-30T07:41:50.465Z,952.98
2018-07-30T07:42:50.466Z,952.97
2018-07-30T07:43:50.486Z,952.97
2018-07-30T07:44:50.503Z,952.98
2018-07-30T07:45:50.423Z,953.02
2018-07-30T07:46:50.408Z,952.98
2018-07-30T07:47:50.417Z,952.97
2018-07-30T07:48:50.406Z,952.96
2018-07-30T07:49:50.564Z,952.96
2018-07-30T07:50:50.605Z,952.95
2018-07-30T07:51:50.356Z,952.98
2018-07-30T07:52:50.350Z,952.98
2018-07-30T07:53:50.337Z,952.99
2018-07-30T07:54:50.368Z,953.02
2018-07-30T07:55:50.319Z,953.01
2018-07-30T07:56:50.307Z,952.98
2018-07-30T07:57:50.295Z,953.00
2018-07-30T07:58:50.285Z,953.02
2018-07-30T07:59:50.272Z,953.01
2018-07-30T08:00:50.341Z,953.04
2018-07-30T08:01:50.248Z,953.05
2018-07-30T08:02:50.232Z,953.05
2018-07-30T08:03:50.227Z,953.08
2018-07-30T08:04:50.224Z,953.11
2018-07-30T08:05:50.207Z,953.04
2018-07-30T08:06:50.224Z,953.04
2018-07-30T08:07:50.185Z,953.07
2018-07-30T08:08:50.173Z,953.07
2018-07-30T08:09:50.326Z,953.06
2018-07-30T08:10:50.204Z,953.07
2018-07-30T08:11:50.174Z,953.09
2018-07-30T08:12:50.145Z,953.10
2018-07-30T08:13:50.120Z,953.09
2018-07-30T08:14:50.111Z,953.10
2018-07-30T08:15:50.098Z,953.08
2018-07-30T08:16:50.086Z,953.09
2018-07-30T08:17:50.089Z,953.12
2018-07-30T08:18:50.076Z,953.08
2018-07-30T08:19:50.053Z,953.13
2018-07-30T08:20:50.049Z,953.08
2018-07-30T08:21:50.035Z,953.08
2018-07-30T08:22:50.039Z,953.11
2018-07-30T08:23:50.011Z,953.10
2018-07-30T08:24:50.014Z,953.14
2018-07-30T08:25:49.990Z,953.07
2018-07-30T08:26:49.986Z,953.06
2018-07-30T08:27:50.001Z,953.08
2018-07-30T08:28:49.964Z,953.11
2018-07-30T08:29:49.946Z,953.12
2018-07-30T08:30:49.957Z,953.07
2018-07-30T08:31:49.927Z,953.09
2018-07-30T08:32:49.911Z,953.09
2018-07-30T08:33:50.030Z,953.05
2018-07-30T08:34:49.889Z,953.08
2018-07-30T08:35:49.879Z,953.08
2018-07-30T08:36:49.882Z,953.06
2018-07-30T08:37:49.855Z,953.11
2018-07-30T08:38:49.866Z,953.11
2018-07-30T08:39:49.835Z,953.10
2018-07-30T08:40:49.829Z,953.10
2018-07-30T08:41:49.816Z,953.11
2018-07-30T08:42:49.821Z,953.09
2018-07-30T08:43:49.796Z,953.06
2018-07-30T08:44:49.798Z,953.08
2018-07-30T08:45:49.778Z,953.11
2018-07-30T08:46:49.767Z,953.06
2018-07-30T08:47:49.752Z,953.09
2018-07-30T08:48:49.811Z,953.09
2018-07-30T08:49:49.747Z,953.11
2018-07-30T08:50:49.721Z,953.07
2018-07-30T08:51:49.710Z,953.12
2018-07-30T08:52:49.699Z,953.10
2018-07-30T08:53:49.702Z,953.14
2018-07-30T08:54:49.695Z,953.11
2018-07-30T08:55:49.672Z,953.07
2018-07-30T08:56:49.660Z,953.14
2018-07-30T08:57:49.646Z,953.12
2018-07-30T08:58:49.635Z,953.13
2018-07-30T08:59:49.635Z,953.07
2018-07-30T09:00:49.628Z,953.06
2018-07-30T09:01:49.603Z,953.09
2018-07-30T09:02:49.586Z,953.09
2018-07-30T09:03:49.579Z,953.11
2018-07-30T09:04:49.568Z,953.05
2018-07-30T09:05:49.596Z,953.04
2018-07-30T09:06:49.546Z,953.09
2018-07-30T09:07:49.536Z,953.08
2018-07-30T09:08:49.532Z,953.07
2018-07-30T09:09:49.515Z,953.04
2018-07-30T09:10:49.509Z,953.14
2018-07-30T09:11:49.517Z,953.05
2018-07-30T09:12:49.643Z,953.13
2018-07-30T09:13:49.474Z,953.12
2018-07-30T09:14:49.460Z,953.13
2018-07-30T09:15:49.449Z,953.09
2018-07-30T09:16:49.486Z,953.07
2018-07-30T09:17:49.446Z,953.07
2018-07-30T09:18:49.412Z,953.12
2018-07-30T09:19:49.406Z,953.13
2018-07-30T09:20:49.393Z,953.12
2018-07-30T09:21:49.385Z,953.14
2018-07-30T09:22:49.394Z,953.07
2018-07-30T09:23:49.377Z,953.10
2018-07-30T09:24:49.352Z,953.11
2018-07-30T09:25:49.339Z,953.05
2018-07-30T09:26:49.358Z,953.13
2018-07-30T09:27:49.318Z,953.14
2018-07-30T09:28:49.331Z,953.10
2018-07-30T09:29:49.316Z,953.16
2018-07-30T09:30:49.285Z,953.15
2018-07-30T09:31:49.276Z,953.12
2018-07-30T09:32:49.286Z,953.17
2018-07-30T09:33:49.271Z,953.11
2018-07-30T09:34:49.245Z,953.15
2018-07-30T09:35:49.247Z,953.15
2018-07-30T09:36:49.218Z,953.17
2018-07-30T09:37:49.215Z,953.14
2018-07-30T09:38:49.254Z,953.15
2018-07-30T09:39:49.191Z,953.11
2018-07-30T09:40:49.183Z,953.11
2018-07-30T09:41:49.184Z,953.17
2018-07-30T09:42:49.159Z,953.14
2018-07-30T09:43:49.150Z,953.16
2018-07-30T09:44:49.214Z,953.17
2018-07-30T09:45:49.129Z,953.15
2018-07-30T09:46:49.117Z,953.19
2018-07-30T09:47:49.121Z,953.16
2018-07-30T09:48:49.102Z,953.15
2018-07-30T09:49:49.086Z,953.15
2018-07-30T09:50:49.084Z,953.15
2018-07-30T09:51:49.069Z,953.17
2018-07-30T09:52:49.050Z,953.14
2018-07-30T09:53:49.061Z,953.12
2018-07-30T09:54:49.030Z,953.14
2018-07-30T09:55:49.055Z,953.12
2018-07-30T09:56:49.012Z,953.12
2018-07-30T09:57:48.995Z,953.13
2018-07-30T09:58:48.990Z,953.13
2018-07-30T09:59:48.991Z,953.18
2018-07-30T10:00:48.966Z,953.19
2018-07-30T10:01:48.971Z,953.20
2018-07-30T10:02:48.947Z,953.14
2018-07-30T10:03:48.929Z,953.18
2018-07-30T10:04:48.924Z,953.18
2018-07-30T10:05:48.940Z,953.20
2018-07-30T10:06:48.924Z,953.13
2018-07-30T10:07:48.894Z,953.15
2018-07-30T10:08:48.885Z,953.15
2018-07-30T10:09:48.871Z,953.17
2018-07-30T10:10:48.861Z,953.19
2018-07-30T10:11:48.980Z,953.19
2018-07-30T10:12:48.854Z,953.16
2018-07-30T10:13:48.829Z,953.19
2018-07-30T10:14:48.820Z,953.17
2018-07-30T10:15:48.809Z,953.16
2018-07-30T10:16:48.798Z,953.19
2018-07-30T10:17:48.856Z,953.16
2018-07-30T10:18:48.772Z,953.14
2018-07-30T10:19:48.757Z,953.09
2018-07-30T10:20:48.751Z,953.13
2018-07-30T10:21:48.745Z,953.08
2018-07-30T10:22:48.729Z,953.11
2018-07-30T10:23:48.844Z,953.06
2018-07-30T10:24:48.707Z,953.07
2018-07-30T10:25:48.702Z,953.08
2018-07-30T10:26:48.690Z,953.02
2018-07-30T10:27:48.684Z,953.07
2018-07-30T10:28:48.740Z,953.06
2018-07-30T10:29:48.678Z,953.05
2018-07-30T10:30:48.661Z,953.03
2018-07-30T10:31:48.638Z,952.98
2018-07-30T10:32:48.633Z,952.98
2018-07-30T10:33:48.616Z,953.00
2018-07-30T10:34:48.619Z,952.96
2018-07-30T10:35:48.606Z,952.97
2018-07-30T10:36:48.591Z,952.95
2018-07-30T10:37:48.577Z,952.97
2018-07-30T10:38:48.567Z,953.00
2018-07-30T10:39:48.580Z,953.00
2018-07-30T10:40:48.541Z,952.98
2018-07-30T10:41:48.552Z,952.97
2018-07-30T10:42:48.519Z,952.91
2018-07-30T10:43:48.513Z,952.95
2018-07-30T10:44:48.499Z,952.89
2018-07-30T10:45:48.502Z,952.93
2018-07-30T10:46:48.484Z,952.94
2018-07-30T10:47:48.492Z,952.93
2018-07-30T10:48:48.466Z,952.96
2018-07-30T10:49:48.456Z,952.92
2018-07-30T10:50:48.450Z,952.99
2018-07-30T10:51:48.426Z,952.95
2018-07-30T10:52:48.418Z,952.96
2018-07-30T10:53:48.460Z,952.91
2018-07-30T10:54:48.392Z,952.85
2018-07-30T10:55:48.408Z,952.87
2018-07-30T10:56:48.368Z,952.85
2018-07-30T10:57:48.362Z,952.87
2018-07-30T10:58:48.353Z,952.91
2018-07-30T10:59:48.352Z,952.87
2018-07-30T11:00:48.363Z,952.86
2018-07-30T11:01:48.325Z,952.83
2018-07-30T11:02:48.310Z,952.87
2018-07-30T11:03:48.299Z,952.85
2018-07-30T11:04:48.290Z,952.87
2018-07-30T11:05:48.292Z,952.82
2018-07-30T11:06:48.296Z,952.87
2018-07-30T11:07:48.307Z,952.85
2018-07-30T11:08:48.253Z,952.86
2018-07-30T11:09:48.304Z,952.84
2018-07-30T11:10:48.239Z,952.85
2018-07-30T11:11:48.225Z,952.83
2018-07-30T11:12:48.244Z,952.84
2018-07-30T11:13:48.189Z,952.84
2018-07-30T11:14:48.229Z,952.88
2018-07-30T11:15:48.177Z,952.87
2018-07-30T11:16:48.160Z,952.87
2018-07-30T11:17:48.180Z,952.83
2018-07-30T11:18:48.137Z,952.79
2018-07-30T11:19:48.142Z,952.83
2018-07-30T11:20:48.117Z,952.83
2018-07-30T11:21:48.108Z,952.82
2018-07-30T11:22:48.094Z,952.86
2018-07-30T11:23:48.135Z,952.83
2018-07-30T11:24:48.080Z,952.86
2018-07-30T11:25:48.066Z,952.86
2018-07-30T11:26:48.055Z,952.85
2018-07-30T11:27:48.046Z,952.87
2018-07-30T11:28:48.053Z,952.89
2018-07-30T11:29:48.068Z,952.87
2018-07-30T11:30:48.015Z,952.82
2018-07-30T11:31:48.010Z,952.79
2018-07-30T11:32:47.995Z,952.74
2018-07-30T11:33:47.979Z,952.76
2018-07-30T11:34:48.024Z,952.72
2018-07-30T11:35:47.973Z,952.71
2018-07-30T11:36:47.950Z,952.69
2018-07-30T11:37:47.943Z,952.70
2018-07-30T11:38:47.928Z,952.79
2018-07-30T11:39:47.917Z,952.79
2018-07-30T11:40:47.921Z,952.83
2018-07-30T11:41:47.909Z,952.82
2018-07-30T11:42:47.935Z,952.78
2018-07-30T11:43:47.877Z,952.81
2018-07-30T11:44:47.867Z,952.81
2018-07-30T11:45:47.900Z,952.82
2018-07-30T11:46:47.849Z,952.81
2018-07-30T11:47:47.847Z,952.85
2018-07-30T11:48:47.884Z,952.82
2018-07-30T11:49:47.830Z,952.83
2018-07-30T11:50:47.804Z,952.80
2018-07-30T11:51:47.807Z,952.80
2018-07-30T11:52:47.787Z,952.76
2018-07-30T11:53:47.790Z,952.82
2018-07-30T11:54:47.756Z,952.81
2018-07-30T11:55:47.758Z,952.77
2018-07-30T11:56:47.769Z,952.77
2018-07-30T11:57:47.729Z,952.83
2018-07-30T11:58:47.723Z,952.76
2018-07-30T11:59:47.715Z,952.81
2018-07-30T12:00:47.701Z,952.75
2018-07-30T12:01:47.737Z,952.80
2018-07-30T12:02:47.704Z,952.84
2018-07-30T12:03:47.677Z,952.77
2018-07-30T12:04:47.656Z,952.83
2018-07-30T12:05:47.662Z,952.83
2018-07-30T12:06:47.635Z,952.80
2018-07-30T12:07:47.651Z,952.82
2018-07-30T12:08:47.623Z,952.82
2018-07-30T12:09:47.604Z,952.82
2018-07-30T12:10:47.589Z,952.81
2018-07-30T12:11:47.593Z,952.82
2018-07-30T12:12:47.575Z,952.83
2018-07-30T12:13:47.593Z,952.82
2018-07-30T12:14:47.550Z,952.82
2018-07-30T12:15:47.537Z,952.79
2018-07-30T12:16:47.528Z,952.83
2018-07-30T12:17:47.534Z,952.84
2018-07-30T12:18:47.507Z,952.86
2018-07-30T12:19:47.535Z,952.85
2018-07-30T12:20:47.484Z,952.84
2018-07-30T12:21:47.568Z,952.88
2018-07-30T12:22:47.464Z,952.86
2018-07-30T12:23:47.507Z,952.85
2018-07-30T12:24:47.446Z,952.78
2018-07-30T12:25:47.435Z,952.85
2018-07-30T12:26:47.425Z,952.79
2018-07-30T12:27:47.413Z,952.80
2018-07-30T12:28:47.417Z,952.77